sensor_id;sensor_type;location;lat;lon;timestamp;pressure;altitude;pressure_sealevel;temperature;humidity
20015;BME280;61787;42.022;23.078;2023-03-15T00:00:33;95805.66;;;8.68;70.55
20015;BME280;61787;42.022;23.078;2023-03-15T00:01:35;95806.09;;;8.70;70.12
20015;BME280;61787;42.022;23.078;2023-03-15T00:02:37;95808.75;;;8.70;70.52
20015;BME280;61787;42.022;23.078;2023-03-15T00:03:40;95811.09;;;8.72;70.43
20015;BME280;61787;42.022;23.078;2023-03-15T00:04:41;95804.28;;;8.74;69.99
20015;BME280;61787;42.022;23.078;2023-03-15T00:05:45;95805.38;;;8.73;70.27
20015;BME280;61787;42.022;23.078;2023-03-15T00:06:46;95807.72;;;8.75;70.50
20015;BME280;61787;42.022;23.078;2023-03-15T00:07:48;95812.72;;;8.76;70.50
20015;BME280;61787;42.022;23.078;2023-03-15T00:08:49;95803.56;;;8.77;69.82
20015;BME280;61787;42.022;23.078;2023-03-15T00:09:52;95806.69;;;8.79;70.50
20015;BME280;61787;42.022;23.078;2023-03-15T00:10:54;95807.03;;;8.78;70.16
20015;BME280;61787;42.022;23.078;2023-03-15T00:11:56;95802.03;;;8.76;70.05
20015;BME280;61787;42.022;23.078;2023-03-15T00:12:58;95799.78;;;8.78;70.24
20015;BME280;61787;42.022;23.078;2023-03-15T00:13:59;95798.22;;;8.77;70.32
20015;BME280;61787;42.022;23.078;2023-03-15T00:15:03;95795.81;;;8.72;70.21
20015;BME280;61787;42.022;23.078;2023-03-15T00:16:05;95792.66;;;8.67;70.90
20015;BME280;61787;42.022;23.078;2023-03-15T00:17:07;95793.84;;;8.69;70.42
20015;BME280;61787;42.022;23.078;2023-03-15T00:18:08;95788.94;;;8.71;70.64
20015;BME280;61787;42.022;23.078;2023-03-15T00:19:10;95789.72;;;8.72;70.60
20015;BME280;61787;42.022;23.078;2023-03-15T00:20:12;95787.38;;;8.70;70.53
20015;BME280;61787;42.022;23.078;2023-03-15T00:21:20;95786.94;;;8.68;70.13
20015;BME280;61787;42.022;23.078;2023-03-15T00:22:21;95782.72;;;8.67;70.32
20015;BME280;61787;42.022;23.078;2023-03-15T00:23:24;95783.84;;;8.66;71.11
20015;BME280;61787;42.022;23.078;2023-03-15T00:24:25;95787.31;;;8.67;70.84
20015;BME280;61787;42.022;23.078;2023-03-15T00:25:27;95774.69;;;8.67;71.12
20015;BME280;61787;42.022;23.078;2023-03-15T00:26:28;95777.72;;;8.66;71.03
20015;BME280;61787;42.022;23.078;2023-03-15T00:27:30;95773.16;;;8.66;70.57
20015;BME280;61787;42.022;23.078;2023-03-15T00:28:32;95778.78;;;8.61;70.70
20015;BME280;61787;42.022;23.078;2023-03-15T00:29:33;95772.97;;;8.59;70.81
20015;BME280;61787;42.022;23.078;2023-03-15T00:30:35;95773.44;;;8.61;70.91
20015;BME280;61787;42.022;23.078;2023-03-15T00:31:36;95764.97;;;8.59;70.68
20015;BME280;61787;42.022;23.078;2023-03-15T00:32:38;95777.88;;;8.57;70.38
20015;BME280;61787;42.022;23.078;2023-03-15T00:33:39;95764.13;;;8.55;70.52
20015;BME280;61787;42.022;23.078;2023-03-15T00:34:41;95764.88;;;8.55;70.91
20015;BME280;61787;42.022;23.078;2023-03-15T00:35:49;95771.00;;;8.56;70.79
20015;BME280;61787;42.022;23.078;2023-03-15T00:36:54;95770.56;;;8.54;71.23
20015;BME280;61787;42.022;23.078;2023-03-15T00:37:56;95769.47;;;8.55;70.44
20015;BME280;61787;42.022;23.078;2023-03-15T00:38:57;95767.91;;;8.54;70.67
20015;BME280;61787;42.022;23.078;2023-03-15T00:39:59;95767.19;;;8.57;70.52
20015;BME280;61787;42.022;23.078;2023-03-15T00:42:06;95765.66;;;8.56;70.27
20015;BME280;61787;42.022;23.078;2023-03-15T00:43:08;95760.31;;;8.56;70.44
20015;BME280;61787;42.022;23.078;2023-03-15T00:44:10;95765.31;;;8.57;70.61
20015;BME280;61787;42.022;23.078;2023-03-15T00:45:11;95762.63;;;8.57;70.89
20015;BME280;61787;42.022;23.078;2023-03-15T00:46:14;95760.75;;;8.58;70.70
20015;BME280;61787;42.022;23.078;2023-03-15T00:47:16;95757.41;;;8.61;70.37
20015;BME280;61787;42.022;23.078;2023-03-15T00:48:17;95761.19;;;8.60;70.14
20015;BME280;61787;42.022;23.078;2023-03-15T00:49:19;95755.84;;;8.60;70.71
20015;BME280;61787;42.022;23.078;2023-03-15T00:50:22;95755.84;;;8.60;71.58
20015;BME280;61787;42.022;23.078;2023-03-15T00:51:23;95753.56;;;8.62;71.02
20015;BME280;61787;42.022;23.078;2023-03-15T00:52:25;95760.47;;;8.63;70.83
20015;BME280;61787;42.022;23.078;2023-03-15T00:53:26;95756.94;;;8.59;71.05
20015;BME280;61787;42.022;23.078;2023-03-15T00:54:28;95748.94;;;8.59;71.07
20015;BME280;61787;42.022;23.078;2023-03-15T00:55:30;95760.41;;;8.60;71.23
20015;BME280;61787;42.022;23.078;2023-03-15T00:56:31;95758.44;;;8.57;71.16
20015;BME280;61787;42.022;23.078;2023-03-15T00:57:33;95755.06;;;8.60;71.51
20015;BME280;61787;42.022;23.078;2023-03-15T00:58:35;95750.50;;;8.60;71.13
20015;BME280;61787;42.022;23.078;2023-03-15T00:59:36;95748.22;;;8.62;71.50
20015;BME280;61787;42.022;23.078;2023-03-15T01:00:38;95748.34;;;8.66;71.41
20015;BME280;61787;42.022;23.078;2023-03-15T01:01:40;95753.69;;;8.66;71.38
20015;BME280;61787;42.022;23.078;2023-03-15T01:02:45;95752.63;;;8.70;71.99
20015;BME280;61787;42.022;23.078;2023-03-15T01:03:47;95757.72;;;8.75;71.85
20015;BME280;61787;42.022;23.078;2023-03-15T01:04:49;95751.59;;;8.75;70.79
20015;BME280;61787;42.022;23.078;2023-03-15T01:05:51;95756.09;;;8.71;70.51
20015;BME280;61787;42.022;23.078;2023-03-15T01:06:53;95752.38;;;8.75;71.06
20015;BME280;61787;42.022;23.078;2023-03-15T01:07:54;95753.66;;;8.81;70.13
20015;BME280;61787;42.022;23.078;2023-03-15T01:08:56;95751.84;;;8.85;71.03
20015;BME280;61787;42.022;23.078;2023-03-15T01:09:59;95748.91;;;8.90;70.90
20015;BME280;61787;42.022;23.078;2023-03-15T01:11:07;95746.69;;;8.92;70.44
20015;BME280;61787;42.022;23.078;2023-03-15T01:12:08;95745.97;;;8.95;70.20
20015;BME280;61787;42.022;23.078;2023-03-15T01:13:10;95744.47;;;8.98;70.05
20015;BME280;61787;42.022;23.078;2023-03-15T01:14:11;95747.59;;;9.00;70.39
20015;BME280;61787;42.022;23.078;2023-03-15T01:15:14;95740.34;;;9.01;70.01
20015;BME280;61787;42.022;23.078;2023-03-15T01:16:16;95734.97;;;8.81;70.36
20015;BME280;61787;42.022;23.078;2023-03-15T01:17:18;95729.63;;;8.81;71.22
20015;BME280;61787;42.022;23.078;2023-03-15T01:18:19;95735.81;;;8.85;71.24
20015;BME280;61787;42.022;23.078;2023-03-15T01:19:21;95732.44;;;8.88;70.82
20015;BME280;61787;42.022;23.078;2023-03-15T01:20:22;95727.59;;;8.94;70.40
20015;BME280;61787;42.022;23.078;2023-03-15T01:21:24;95723.47;;;8.96;70.18
20015;BME280;61787;42.022;23.078;2023-03-15T01:22:26;95727.84;;;9.05;69.94
20015;BME280;61787;42.022;23.078;2023-03-15T01:23:27;95726.44;;;9.11;69.83
20015;BME280;61787;42.022;23.078;2023-03-15T01:24:29;95727.56;;;9.10;69.70
20015;BME280;61787;42.022;23.078;2023-03-15T01:25:30;95717.75;;;8.98;69.11
20015;BME280;61787;42.022;23.078;2023-03-15T01:26:32;95720.31;;;8.75;70.07
20015;BME280;61787;42.022;23.078;2023-03-15T01:27:34;95708.84;;;8.59;70.92
20015;BME280;61787;42.022;23.078;2023-03-15T01:28:35;95709.13;;;8.54;70.74
20015;BME280;61787;42.022;23.078;2023-03-15T01:29:37;95707.06;;;8.47;71.54
20015;BME280;61787;42.022;23.078;2023-03-15T01:30:38;95709.47;;;8.37;72.20
20015;BME280;61787;42.022;23.078;2023-03-15T01:31:40;95711.97;;;8.45;71.98
20015;BME280;61787;42.022;23.078;2023-03-15T01:32:42;95704.81;;;8.49;71.54
20015;BME280;61787;42.022;23.078;2023-03-15T01:33:43;95705.25;;;8.51;71.64
20015;BME280;61787;42.022;23.078;2023-03-15T01:34:45;95703.59;;;8.47;71.52
20015;BME280;61787;42.022;23.078;2023-03-15T01:35:47;95705.16;;;8.48;71.72
20015;BME280;61787;42.022;23.078;2023-03-15T01:36:49;95701.31;;;8.45;71.76
20015;BME280;61787;42.022;23.078;2023-03-15T01:37:52;95698.25;;;8.47;72.53
20015;BME280;61787;42.022;23.078;2023-03-15T01:38:54;95704.03;;;8.49;72.52
20015;BME280;61787;42.022;23.078;2023-03-15T01:39:56;95693.88;;;8.54;72.43
20015;BME280;61787;42.022;23.078;2023-03-15T01:40:58;95692.56;;;8.64;71.36
20015;BME280;61787;42.022;23.078;2023-03-15T01:42:01;95686.50;;;8.67;71.10
20015;BME280;61787;42.022;23.078;2023-03-15T01:44:04;95681.34;;;8.74;71.23
20015;BME280;61787;42.022;23.078;2023-03-15T01:46:46;95673.28;;;8.90;70.80
20015;BME280;61787;42.022;23.078;2023-03-15T01:47:47;95680.69;;;8.96;70.08
20015;BME280;61787;42.022;23.078;2023-03-15T01:50:08;95674.50;;;9.12;69.00
20015;BME280;61787;42.022;23.078;2023-03-15T01:51:36;95682.66;;;9.19;68.97
20015;BME280;61787;42.022;23.078;2023-03-15T01:52:40;95674.81;;;9.26;68.37
20015;BME280;61787;42.022;23.078;2023-03-15T01:53:49;95670.28;;;9.30;68.60
20015;BME280;61787;42.022;23.078;2023-03-15T01:55:13;95672.69;;;9.35;67.51
20015;BME280;61787;42.022;23.078;2023-03-15T01:56:16;95671.28;;;9.41;68.07
20015;BME280;61787;42.022;23.078;2023-03-15T01:57:24;95680.50;;;9.44;67.42
20015;BME280;61787;42.022;23.078;2023-03-15T01:58:27;95674.78;;;9.45;67.01
20015;BME280;61787;42.022;23.078;2023-03-15T01:59:32;95678.88;;;9.39;67.25
20015;BME280;61787;42.022;23.078;2023-03-15T02:00:37;95673.22;;;9.44;67.02
20015;BME280;61787;42.022;23.078;2023-03-15T02:01:39;95671.44;;;9.48;66.73
20015;BME280;61787;42.022;23.078;2023-03-15T02:02:54;95668.03;;;9.51;66.99
20015;BME280;61787;42.022;23.078;2023-03-15T02:04:07;95673.81;;;9.53;66.35
20015;BME280;61787;42.022;23.078;2023-03-15T02:05:10;95679.03;;;9.46;66.14
20015;BME280;61787;42.022;23.078;2023-03-15T02:06:16;95669.44;;;9.45;65.77
20015;BME280;61787;42.022;23.078;2023-03-15T02:07:20;95670.28;;;9.49;66.09
20015;BME280;61787;42.022;23.078;2023-03-15T02:08:28;95669.25;;;9.54;66.00
20015;BME280;61787;42.022;23.078;2023-03-15T02:09:41;95669.31;;;9.57;65.58
20015;BME280;61787;42.022;23.078;2023-03-15T02:10:48;95664.00;;;9.61;65.85
20015;BME280;61787;42.022;23.078;2023-03-15T02:11:51;95668.56;;;9.60;66.03
20015;BME280;61787;42.022;23.078;2023-03-15T02:12:54;95665.78;;;9.34;66.82
20015;BME280;61787;42.022;23.078;2023-03-15T02:13:56;95664.38;;;9.21;67.20
20015;BME280;61787;42.022;23.078;2023-03-15T02:15:02;95663.25;;;9.22;67.89
20015;BME280;61787;42.022;23.078;2023-03-15T02:16:05;95668.03;;;9.13;67.80
20015;BME280;61787;42.022;23.078;2023-03-15T02:17:07;95666.50;;;9.12;68.00
20015;BME280;61787;42.022;23.078;2023-03-15T02:18:08;95662.25;;;9.11;67.71
20015;BME280;61787;42.022;23.078;2023-03-15T02:19:22;95667.00;;;9.17;68.10
20015;BME280;61787;42.022;23.078;2023-03-15T02:20:48;95667.06;;;9.21;68.07
20015;BME280;61787;42.022;23.078;2023-03-15T02:22:18;95662.88;;;9.04;68.46
20015;BME280;61787;42.022;23.078;2023-03-15T02:23:21;95653.91;;;8.77;68.66
20015;BME280;61787;42.022;23.078;2023-03-15T02:24:50;95656.00;;;8.68;70.28
20015;BME280;61787;42.022;23.078;2023-03-15T02:27:01;95659.72;;;8.64;69.72
20015;BME280;61787;42.022;23.078;2023-03-15T02:28:06;95663.97;;;8.49;70.34
20015;BME280;61787;42.022;23.078;2023-03-15T02:29:08;95655.19;;;8.33;70.88
20015;BME280;61787;42.022;23.078;2023-03-15T02:30:10;95660.13;;;8.31;71.96
20015;BME280;61787;42.022;23.078;2023-03-15T02:31:13;95651.59;;;8.41;71.46
20015;BME280;61787;42.022;23.078;2023-03-15T02:32:15;95647.88;;;8.45;71.98
20015;BME280;61787;42.022;23.078;2023-03-15T02:34:24;95645.84;;;8.58;71.34
20015;BME280;61787;42.022;23.078;2023-03-15T02:35:28;95635.34;;;8.65;71.26
20015;BME280;61787;42.022;23.078;2023-03-15T02:36:32;95636.63;;;8.71;70.86
20015;BME280;61787;42.022;23.078;2023-03-15T02:37:34;95628.72;;;8.78;70.24
20015;BME280;61787;42.022;23.078;2023-03-15T02:38:35;95619.66;;;8.83;70.08
20015;BME280;61787;42.022;23.078;2023-03-15T02:39:37;95623.13;;;8.83;69.82
20015;BME280;61787;42.022;23.078;2023-03-15T02:40:39;95622.44;;;8.86;69.40
20015;BME280;61787;42.022;23.078;2023-03-15T02:41:43;95620.03;;;8.81;69.89
20015;BME280;61787;42.022;23.078;2023-03-15T02:42:50;95615.53;;;8.85;69.35
20015;BME280;61787;42.022;23.078;2023-03-15T02:43:56;95622.00;;;8.84;69.60
20015;BME280;61787;42.022;23.078;2023-03-15T02:44:59;95623.16;;;8.68;69.62
20015;BME280;61787;42.022;23.078;2023-03-15T02:46:01;95623.81;;;8.61;70.03
20015;BME280;61787;42.022;23.078;2023-03-15T02:47:28;95625.06;;;8.67;69.69
20015;BME280;61787;42.022;23.078;2023-03-15T02:48:28;95621.16;;;8.80;70.41
20015;BME280;61787;42.022;23.078;2023-03-15T02:49:35;95619.75;;;8.86;69.96
20015;BME280;61787;42.022;23.078;2023-03-15T02:50:38;95623.72;;;8.92;69.57
20015;BME280;61787;42.022;23.078;2023-03-15T02:51:39;95604.72;;;8.97;69.10
20015;BME280;61787;42.022;23.078;2023-03-15T02:52:41;95612.47;;;9.03;69.86
20015;BME280;61787;42.022;23.078;2023-03-15T02:53:42;95605.69;;;9.09;68.87
20015;BME280;61787;42.022;23.078;2023-03-15T02:54:44;95608.06;;;9.14;68.76
20015;BME280;61787;42.022;23.078;2023-03-15T02:55:46;95605.13;;;9.19;68.35
20015;BME280;61787;42.022;23.078;2023-03-15T02:56:47;95605.19;;;9.22;67.87
20015;BME280;61787;42.022;23.078;2023-03-15T02:57:49;95612.94;;;9.27;68.34
20015;BME280;61787;42.022;23.078;2023-03-15T02:58:51;95604.97;;;9.31;67.95
20015;BME280;61787;42.022;23.078;2023-03-15T02:59:53;95601.56;;;9.34;68.12
20015;BME280;61787;42.022;23.078;2023-03-15T03:00:55;95597.88;;;9.38;68.06
20015;BME280;61787;42.022;23.078;2023-03-15T03:01:57;95601.72;;;9.41;66.87
20015;BME280;61787;42.022;23.078;2023-03-15T03:02:58;95607.91;;;9.45;66.67
20015;BME280;61787;42.022;23.078;2023-03-15T03:04:00;95606.72;;;9.43;67.03
20015;BME280;61787;42.022;23.078;2023-03-15T03:05:01;95595.66;;;9.44;67.09
20015;BME280;61787;42.022;23.078;2023-03-15T03:06:03;95600.72;;;9.49;66.68
20015;BME280;61787;42.022;23.078;2023-03-15T03:07:05;95601.13;;;9.51;67.33
20015;BME280;61787;42.022;23.078;2023-03-15T03:08:06;95596.22;;;9.53;66.55
20015;BME280;61787;42.022;23.078;2023-03-15T03:09:09;95598.53;;;9.55;66.75
20015;BME280;61787;42.022;23.078;2023-03-15T03:10:13;95597.44;;;9.59;66.27
20015;BME280;61787;42.022;23.078;2023-03-15T03:11:15;95592.03;;;9.56;65.39
20015;BME280;61787;42.022;23.078;2023-03-15T03:12:17;95588.47;;;9.48;66.07
20015;BME280;61787;42.022;23.078;2023-03-15T03:13:18;95588.78;;;9.43;66.33
20015;BME280;61787;42.022;23.078;2023-03-15T03:14:20;95587.22;;;9.42;66.32
20015;BME280;61787;42.022;23.078;2023-03-15T03:15:24;95584.94;;;9.44;65.89
20015;BME280;61787;42.022;23.078;2023-03-15T03:16:25;95583.53;;;9.50;66.10
20015;BME280;61787;42.022;23.078;2023-03-15T03:17:27;95577.09;;;9.32;66.20
20015;BME280;61787;42.022;23.078;2023-03-15T03:18:29;95574.53;;;9.16;66.47
20015;BME280;61787;42.022;23.078;2023-03-15T03:19:32;95579.66;;;9.06;66.62
20015;BME280;61787;42.022;23.078;2023-03-15T03:20:33;95581.06;;;8.99;67.10
20015;BME280;61787;42.022;23.078;2023-03-15T03:21:35;95579.50;;;8.98;67.22
20015;BME280;61787;42.022;23.078;2023-03-15T03:22:37;95575.44;;;8.85;67.83
20015;BME280;61787;42.022;23.078;2023-03-15T03:23:39;95578.28;;;8.57;68.45
20015;BME280;61787;42.022;23.078;2023-03-15T03:24:40;95566.13;;;8.41;69.75
20015;BME280;61787;42.022;23.078;2023-03-15T03:25:46;95577.16;;;8.24;70.11
20015;BME280;61787;42.022;23.078;2023-03-15T03:26:47;95567.00;;;8.13;70.96
20015;BME280;61787;42.022;23.078;2023-03-15T03:27:49;95562.88;;;8.00;71.44
20015;BME280;61787;42.022;23.078;2023-03-15T03:28:50;95573.81;;;7.95;72.42
20015;BME280;61787;42.022;23.078;2023-03-15T03:29:52;95568.91;;;7.97;71.93
20015;BME280;61787;42.022;23.078;2023-03-15T03:30:54;95571.31;;;8.02;71.52
20015;BME280;61787;42.022;23.078;2023-03-15T03:31:56;95575.19;;;8.05;71.93
20015;BME280;61787;42.022;23.078;2023-03-15T03:32:58;95576.56;;;8.14;71.81
20015;BME280;61787;42.022;23.078;2023-03-15T03:33:59;95582.31;;;8.17;71.54
20015;BME280;61787;42.022;23.078;2023-03-15T03:35:01;95574.75;;;8.19;71.76
20015;BME280;61787;42.022;23.078;2023-03-15T03:36:03;95579.47;;;8.25;71.49
20015;BME280;61787;42.022;23.078;2023-03-15T03:37:05;95569.75;;;8.33;71.99
20015;BME280;61787;42.022;23.078;2023-03-15T03:38:10;95575.38;;;8.47;71.00
20015;BME280;61787;42.022;23.078;2023-03-15T03:39:12;95579.34;;;8.53;70.92
20015;BME280;61787;42.022;23.078;2023-03-15T03:40:14;95576.38;;;8.58;70.77
20015;BME280;61787;42.022;23.078;2023-03-15T03:41:16;95578.66;;;8.56;70.63
20015;BME280;61787;42.022;23.078;2023-03-15T03:42:17;95571.47;;;8.60;70.24
20015;BME280;61787;42.022;23.078;2023-03-15T03:43:19;95575.84;;;8.68;69.89
20015;BME280;61787;42.022;23.078;2023-03-15T03:44:21;95569.81;;;8.71;70.08
20015;BME280;61787;42.022;23.078;2023-03-15T03:45:23;95576.06;;;8.79;69.52
20015;BME280;61787;42.022;23.078;2023-03-15T03:46:24;95576.22;;;8.86;70.01
20015;BME280;61787;42.022;23.078;2023-03-15T03:47:26;95565.59;;;8.89;69.01
20015;BME280;61787;42.022;23.078;2023-03-15T03:48:28;95572.19;;;8.95;69.05
20015;BME280;61787;42.022;23.078;2023-03-15T03:49:31;95573.03;;;8.99;68.88
20015;BME280;61787;42.022;23.078;2023-03-15T03:50:33;95571.56;;;9.02;69.15
20015;BME280;61787;42.022;23.078;2023-03-15T03:51:34;95571.63;;;9.06;69.20
20015;BME280;61787;42.022;23.078;2023-03-15T03:52:36;95562.91;;;9.09;69.08
20015;BME280;61787;42.022;23.078;2023-03-15T03:53:38;95566.44;;;9.13;68.38
20015;BME280;61787;42.022;23.078;2023-03-15T03:54:39;95560.72;;;9.14;68.35
20015;BME280;61787;42.022;23.078;2023-03-15T03:55:43;95561.53;;;9.18;68.62
20015;BME280;61787;42.022;23.078;2023-03-15T03:56:44;95561.63;;;9.22;67.64
20015;BME280;61787;42.022;23.078;2023-03-15T03:57:46;95563.25;;;9.26;67.12
20015;BME280;61787;42.022;23.078;2023-03-15T03:58:47;95558.66;;;9.27;67.12
20015;BME280;61787;42.022;23.078;2023-03-15T03:59:49;95557.25;;;9.33;66.58
20015;BME280;61787;42.022;23.078;2023-03-15T04:00:51;95561.09;;;9.35;66.51
20015;BME280;61787;42.022;23.078;2023-03-15T04:01:55;95562.03;;;9.43;67.24
20015;BME280;61787;42.022;23.078;2023-03-15T04:02:57;95562.84;;;9.47;66.53
20015;BME280;61787;42.022;23.078;2023-03-15T04:03:58;95557.91;;;9.49;66.59
20015;BME280;61787;42.022;23.078;2023-03-15T04:05:00;95560.47;;;9.42;66.69
20015;BME280;61787;42.022;23.078;2023-03-15T04:06:02;95559.25;;;9.39;66.67
20015;BME280;61787;42.022;23.078;2023-03-15T04:07:06;95554.97;;;9.35;66.75
20015;BME280;61787;42.022;23.078;2023-03-15T04:08:07;95552.41;;;9.19;67.08
20015;BME280;61787;42.022;23.078;2023-03-15T04:09:09;95545.34;;;9.08;67.64
20015;BME280;61787;42.022;23.078;2023-03-15T04:10:12;95550.19;;;9.02;67.89
20015;BME280;61787;42.022;23.078;2023-03-15T04:11:15;95541.59;;;8.93;68.88
20015;BME280;61787;42.022;23.078;2023-03-15T04:12:17;95546.31;;;8.80;68.70
20015;BME280;61787;42.022;23.078;2023-03-15T04:13:20;95542.72;;;8.73;69.63
20015;BME280;61787;42.022;23.078;2023-03-15T04:14:22;95537.75;;;8.71;69.74
20015;BME280;61787;42.022;23.078;2023-03-15T04:15:24;95534.63;;;8.69;70.04
20015;BME280;61787;42.022;23.078;2023-03-15T04:16:26;95536.59;;;8.53;70.46
20015;BME280;61787;42.022;23.078;2023-03-15T04:17:28;95531.81;;;8.43;70.52
20015;BME280;61787;42.022;23.078;2023-03-15T04:18:29;95526.63;;;8.50;70.40
20015;BME280;61787;42.022;23.078;2023-03-15T04:19:31;95525.22;;;8.56;70.67
20015;BME280;61787;42.022;23.078;2023-03-15T04:20:33;95526.06;;;8.60;70.37
20015;BME280;61787;42.022;23.078;2023-03-15T04:21:35;95525.34;;;8.63;69.87
20015;BME280;61787;42.022;23.078;2023-03-15T04:22:38;95528.47;;;8.65;69.28
20015;BME280;61787;42.022;23.078;2023-03-15T04:23:39;95526.97;;;8.68;69.86
20015;BME280;61787;42.022;23.078;2023-03-15T04:24:41;95536.25;;;8.74;69.23
20015;BME280;61787;42.022;23.078;2023-03-15T04:25:43;95524.88;;;8.77;69.33
20015;BME280;61787;42.022;23.078;2023-03-15T04:26:44;95529.16;;;8.81;69.63
20015;BME280;61787;42.022;23.078;2023-03-15T04:27:46;95529.66;;;8.87;69.48
20015;BME280;61787;42.022;23.078;2023-03-15T04:28:59;95536.63;;;8.91;69.09
20015;BME280;61787;42.022;23.078;2023-03-15T04:30:00;95540.56;;;8.97;69.10
20015;BME280;61787;42.022;23.078;2023-03-15T04:31:05;95539.84;;;9.01;68.62
20015;BME280;61787;42.022;23.078;2023-03-15T04:32:11;95547.50;;;9.02;68.97
20015;BME280;61787;42.022;23.078;2023-03-15T04:33:12;95547.56;;;9.06;68.60
20015;BME280;61787;42.022;23.078;2023-03-15T04:34:14;95552.97;;;9.09;68.34
20015;BME280;61787;42.022;23.078;2023-03-15T04:35:15;95558.41;;;9.13;67.83
20015;BME280;61787;42.022;23.078;2023-03-15T04:36:17;95559.25;;;9.17;67.93
20015;BME280;61787;42.022;23.078;2023-03-15T04:37:19;95566.16;;;9.18;68.19
20015;BME280;61787;42.022;23.078;2023-03-15T04:38:20;95566.16;;;9.18;67.75
20015;BME280;61787;42.022;23.078;2023-03-15T04:39:27;95561.19;;;9.20;68.19
20015;BME280;61787;42.022;23.078;2023-03-15T04:40:30;95565.50;;;9.24;67.87
20015;BME280;61787;42.022;23.078;2023-03-15T04:41:35;95561.34;;;9.27;67.01
20015;BME280;61787;42.022;23.078;2023-03-15T04:42:37;95566.06;;;9.33;67.27
20015;BME280;61787;42.022;23.078;2023-03-15T04:43:40;95562.59;;;9.33;66.97
20015;BME280;61787;42.022;23.078;2023-03-15T04:44:42;95562.59;;;9.33;67.44
20015;BME280;61787;42.022;23.078;2023-03-15T04:45:43;95566.97;;;9.22;67.56
20015;BME280;61787;42.022;23.078;2023-03-15T04:46:45;95562.13;;;9.08;66.33
20015;BME280;61787;42.022;23.078;2023-03-15T04:47:48;95565.38;;;8.98;67.07
20015;BME280;61787;42.022;23.078;2023-03-15T04:48:50;95576.44;;;8.96;67.38
20015;BME280;61787;42.022;23.078;2023-03-15T04:49:51;95575.31;;;8.97;67.00
20015;BME280;61787;42.022;23.078;2023-03-15T04:50:53;95585.22;;;8.97;67.29
20015;BME280;61787;42.022;23.078;2023-03-15T04:51:54;95581.06;;;8.99;66.63
20015;BME280;61787;42.022;23.078;2023-03-15T04:52:57;95585.28;;;9.01;67.33
20015;BME280;61787;42.022;23.078;2023-03-15T04:54:00;95574.66;;;8.85;67.76
20015;BME280;61787;42.022;23.078;2023-03-15T04:55:02;95579.78;;;8.74;68.49
20015;BME280;61787;42.022;23.078;2023-03-15T04:56:04;95575.06;;;8.68;68.02
20015;BME280;61787;42.022;23.078;2023-03-15T04:57:06;95572.59;;;8.59;68.61
20015;BME280;61787;42.022;23.078;2023-03-15T04:58:08;95578.50;;;8.49;68.77
20015;BME280;61787;42.022;23.078;2023-03-15T04:59:09;95574.75;;;8.34;69.84
20015;BME280;61787;42.022;23.078;2023-03-15T05:00:12;95567.06;;;8.33;69.83
20015;BME280;61787;42.022;23.078;2023-03-15T05:01:14;95568.34;;;8.39;69.15
20015;BME280;61787;42.022;23.078;2023-03-15T05:02:16;95565.41;;;8.44;69.29
20015;BME280;61787;42.022;23.078;2023-03-15T05:03:18;95558.69;;;8.50;69.34
20015;BME280;61787;42.022;23.078;2023-03-15T05:04:19;95557.97;;;8.53;69.06
20015;BME280;61787;42.022;23.078;2023-03-15T05:05:22;95560.91;;;8.48;69.10
20015;BME280;61787;42.022;23.078;2023-03-15T05:06:24;95560.69;;;8.37;69.87
20015;BME280;61787;42.022;23.078;2023-03-15T05:07:26;95566.66;;;8.31;70.63
20015;BME280;61787;42.022;23.078;2023-03-15T05:08:27;95561.19;;;8.27;70.07
20015;BME280;61787;42.022;23.078;2023-03-15T05:09:29;95561.13;;;8.24;70.96
20015;BME280;61787;42.022;23.078;2023-03-15T05:10:40;95562.69;;;8.25;70.60
20015;BME280;61787;42.022;23.078;2023-03-15T05:11:41;95565.75;;;8.27;70.94
20015;BME280;61787;42.022;23.078;2023-03-15T05:12:43;95567.06;;;8.17;70.63
20015;BME280;61787;42.022;23.078;2023-03-15T05:13:44;95573.72;;;8.07;71.24
20015;BME280;61787;42.022;23.078;2023-03-15T05:14:46;95570.53;;;8.02;71.53
20015;BME280;61787;42.022;23.078;2023-03-15T05:15:48;95565.06;;;7.95;70.66
20015;BME280;61787;42.022;23.078;2023-03-15T05:16:49;95562.66;;;7.90;71.17
20015;BME280;61787;42.022;23.078;2023-03-15T05:17:56;95570.28;;;7.91;71.24
20015;BME280;61787;42.022;23.078;2023-03-15T05:18:57;95560.31;;;7.88;71.84
20015;BME280;61787;42.022;23.078;2023-03-15T05:19:59;95567.09;;;7.86;71.78
20015;BME280;61787;42.022;23.078;2023-03-15T05:21:11;95562.81;;;7.81;72.08
20015;BME280;61787;42.022;23.078;2023-03-15T05:22:13;95567.38;;;7.81;71.82
20015;BME280;61787;42.022;23.078;2023-03-15T05:23:15;95562.47;;;7.83;71.91
20015;BME280;61787;42.022;23.078;2023-03-15T05:24:16;95572.44;;;7.86;71.47
20015;BME280;61787;42.022;23.078;2023-03-15T05:25:18;95576.47;;;7.95;71.42
20015;BME280;61787;42.022;23.078;2023-03-15T05:26:19;95572.94;;;8.07;71.14
20015;BME280;61787;42.022;23.078;2023-03-15T05:27:21;95574.75;;;8.19;70.88
20015;BME280;61787;42.022;23.078;2023-03-15T05:28:24;95575.78;;;8.30;70.77
20015;BME280;61787;42.022;23.078;2023-03-15T05:29:25;95583.53;;;8.35;69.72
20015;BME280;61787;42.022;23.078;2023-03-15T05:30:27;95580.59;;;8.40;69.34
20015;BME280;61787;42.022;23.078;2023-03-15T05:31:38;95582.69;;;8.31;70.11
20015;BME280;61787;42.022;23.078;2023-03-15T05:32:39;95582.50;;;8.24;70.51
20015;BME280;61787;42.022;23.078;2023-03-15T05:33:45;95579.47;;;8.25;70.69
20015;BME280;61787;42.022;23.078;2023-03-15T05:34:47;95574.69;;;8.31;70.76
20015;BME280;61787;42.022;23.078;2023-03-15T05:35:49;95577.91;;;8.40;70.54
20015;BME280;61787;42.022;23.078;2023-03-15T05:36:53;95579.22;;;8.46;69.56
20015;BME280;61787;42.022;23.078;2023-03-15T05:37:55;95581.16;;;8.49;69.23
20015;BME280;61787;42.022;23.078;2023-03-15T05:38:56;95575.56;;;8.54;68.81
20015;BME280;61787;42.022;23.078;2023-03-15T05:39:58;95581.06;;;8.61;69.98
20015;BME280;61787;42.022;23.078;2023-03-15T05:41:02;95579.63;;;8.67;68.72